M I D A S
Marine Information and Data Acquisition System
Tripno 1868 of the Zeeleeuw from 2010-04-26 10:11:46 to 2010-04-26 14:43:17
Back to CruiseResearch ActivitiesStationsMapUnderway DataData graphs

EquipmentUnitsComment
TimeDGPSUTC
LatitudeDGPSDM.mWGS84
LongitudeDGPSDM.mWGS84
HeadingGyrodeg 
SOGDGPSknotsSpeed over ground
COGDGPSdegCourse over ground
DepthEcho soundermeters200 kHz
Missing or incorrect values are displayed as -999
Navigation data collected by the RV Zeeleeuw from 2010-04-26 07:09:07 to 2010-04-26 15:02:00
                                                                                    Next 1000 lines
Time Latitude Longitude Heading SOG COG Depth
2010-04-26 07:09:16 51°13.661 2°55.952 109.7 1.8 287 6
2010-04-26 07:09:21 51°13.662 2°55.947 110.3 2.6 294 6.2
2010-04-26 07:09:27 51°13.664 2°55.94 110.5 3 291 -999
2010-04-26 07:09:32 51°13.666 2°55.933 110.5 3.5 293 -999
2010-04-26 07:09:38 51°13.668 2°55.924 110 3.9 291 -999
2010-04-26 07:09:44 51°13.671 2°55.914 109.7 4.1 292 -999
2010-04-26 07:09:49 51°13.673 2°55.905 109.1 4.3 290 -999
2010-04-26 07:09:55 51°13.675 2°55.894 107.8 4.4 290 -999
2010-04-26 07:10:00 51°13.677 2°55.884 106.8 4.4 288 -999
2010-04-26 07:10:05 51°13.679 2°55.875 106 4.4 287 -999
2010-04-26 07:10:10 51°13.681 2°55.866 105.2 4.3 286 -999
2010-04-26 07:10:15 51°13.683 2°55.857 104.4 4.2 285 -999
2010-04-26 07:10:20 51°13.684 2°55.848 103.7 4.2 285 -999
2010-04-26 07:10:25 51°13.685 2°55.839 102.8 4.1 284 -999
2010-04-26 07:10:30 51°13.687 2°55.831 101.7 4.1 283 -999
2010-04-26 07:10:35 51°13.688 2°55.822 100.4 4 283 -999
2010-04-26 07:10:40 51°13.689 2°55.814 99.2 3.8 282 -999
2010-04-26 07:10:45 51°13.69 2°55.806 97.9 3.7 281 -999
2010-04-26 07:10:50 51°13.691 2°55.798 96.7 3.6 279 -999
2010-04-26 07:10:55 51°13.691 2°55.791 95 3.5 278 -999
2010-04-26 07:11:00 51°13.692 2°55.783 93.5 3.3 276 -999
2010-04-26 07:11:05 51°13.692 2°55.776 92 3.2 276 -999
2010-04-26 07:11:10 51°13.693 2°55.77 90.6 2.7 275 -999
2010-04-26 07:11:15 51°13.693 2°55.766 89.4 1.9 273 -999
2010-04-26 07:11:20 51°13.693 2°55.764 86.5 1.3 277 -999
2010-04-26 07:11:25 51°13.693 2°55.762 82.4 0.9 277 -999
2010-04-26 07:11:29 51°13.694 2°55.762 78.9 0.3 307 5.1
2010-04-26 07:11:35 51°13.694 2°55.763 74.6 0.4 43 -999
2010-04-26 07:11:40 51°13.695 2°55.764 70.2 0.6 46 -999
2010-04-26 07:11:45 51°13.695 2°55.765 63.2 0.6 50 -999
2010-04-26 07:11:50 51°13.696 2°55.766 57.7 0.7 50 -999
2010-04-26 07:11:55 51°13.697 2°55.767 54.6 0.7 48 4.6
2010-04-26 07:12:00 51°13.697 2°55.768 51.2 0.6 42 4.6
2010-04-26 07:12:05 51°13.698 2°55.768 49 0.3 52 -999
2010-04-26 07:12:10 51°13.697 2°55.768 46.5 0.2 220 4.7
2010-04-26 07:12:15 51°13.696 2°55.766 43.6 0.9 222 -999
2010-04-26 07:12:20 51°13.695 2°55.764 41.5 1.5 219 -999
2010-04-26 07:12:25 51°13.693 2°55.762 39.9 1.9 218 -999
2010-04-26 07:12:30 51°13.691 2°55.759 38.4 1.8 217 -999
2010-04-26 07:12:35 51°13.689 2°55.757 37.8 1.5 217 5.7
2010-04-26 07:12:40 51°13.688 2°55.756 37.3 0.8 218 -999
2010-04-26 07:12:45 51°13.688 2°55.756 35.8 0.2 190 -999
2010-04-26 07:12:50 51°13.689 2°55.756 32.8 0.7 15 -999
2010-04-26 07:12:55 51°13.69 2°55.758 26.8 1.2 25 -999
2010-04-26 07:13:00 51°13.692 2°55.758 20.2 1.4 9 -999
2010-04-26 07:13:05 51°13.694 2°55.759 14.6 1.6 18 -999
2010-04-26 07:13:10 51°13.697 2°55.759 10.3 1.9 1 -999
2010-04-26 07:13:15 51°13.7 2°55.759 5.6 2.2 4 4.8
2010-04-26 07:13:20 51°13.704 2°55.758 1.5 2.7 351 -999
2010-04-26 07:13:25 51°13.708 2°55.757 353.8 2.9 347 -999
2010-04-26 07:13:30 51°13.712 2°55.755 347 3 341 -999
2010-04-26 07:13:35 51°13.716 2°55.752 340.3 3.1 335 -999
2010-04-26 07:13:40 51°13.719 2°55.748 333.9 3.1 331 -999
2010-04-26 07:13:45 51°13.723 2°55.745 330.8 3.2 331 -999
2010-04-26 07:13:50 51°13.727 2°55.741 329.3 3.3 327 -999
2010-04-26 07:13:55 51°13.731 2°55.737 327.7 3.4 327 -999
2010-04-26 07:14:00 51°13.735 2°55.733 327 3.5 327 -999
2010-04-26 07:14:05 51°13.739 2°55.728 326.9 3.5 327 -999
2010-04-26 07:14:10 51°13.744 2°55.724 327.3 3.7 327 -999
2010-04-26 07:14:15 51°13.748 2°55.719 327.8 3.9 328 11.1
2010-04-26 07:14:20 51°13.753 2°55.715 328 4.1 328 10.7
2010-04-26 07:14:25 51°13.758 2°55.709 328.3 4.5 329 10.9
2010-04-26 07:14:29 51°13.763 2°55.705 328.7 4.7 329 10.8
2010-04-26 07:14:34 51°13.769 2°55.699 328.8 5.1 329 10.6
2010-04-26 07:14:39 51°13.775 2°55.693 328.8 5.3 329 10.6
2010-04-26 07:14:45 51°13.783 2°55.685 328.9 5.6 329 -999
2010-04-26 07:14:49 51°13.789 2°55.68 329.1 5.8 329 -999
2010-04-26 07:14:55 51°13.797 2°55.671 329 6 329 -999
2010-04-26 07:15:00 51°13.804 2°55.664 328.6 6.2 328 -999
2010-04-26 07:15:05 51°13.812 2°55.657 328.6 6.2 328 -999
2010-04-26 07:15:10 51°13.819 2°55.65 328.9 6.1 329 -999
2010-04-26 07:15:15 51°13.826 2°55.643 329.3 6.1 329 -999
2010-04-26 07:15:20 51°13.833 2°55.636 329.3 6 329 -999
2010-04-26 07:15:25 51°13.84 2°55.629 329.2 6 329 -999
2010-04-26 07:15:30 51°13.847 2°55.622 329.2 5.8 329 -999
2010-04-26 07:15:35 51°13.854 2°55.616 329.1 5.7 329 -999
2010-04-26 07:15:40 51°13.861 2°55.609 328.9 5.6 328 -999
2010-04-26 07:15:45 51°13.867 2°55.603 328.8 5.5 328 -999
2010-04-26 07:15:50 51°13.874 2°55.596 328.9 5.4 329 -999
2010-04-26 07:15:55 51°13.88 2°55.59 328.9 5.3 328 10.7
2010-04-26 07:16:00 51°13.886 2°55.584 328.8 5.1 329 10.5
2010-04-26 07:16:05 51°13.891 2°55.578 328.6 5 328 10.6
2010-04-26 07:16:09 51°13.896 2°55.573 328.3 4.9 328 10.6
2010-04-26 07:16:15 51°13.903 2°55.566 328.2 4.8 328 -999
2010-04-26 07:16:20 51°13.908 2°55.561 328 4.7 327 10.8
2010-04-26 07:16:25 51°13.914 2°55.555 327.9 4.6 327 -999
2010-04-26 07:16:30 51°13.919 2°55.55 327.9 4.5 327 11.1
2010-04-26 07:16:35 51°13.924 2°55.545 327.9 4.4 327 10.9
2010-04-26 07:16:40 51°13.929 2°55.54 327.9 4.3 327 11
2010-04-26 07:16:45 51°13.934 2°55.535 327.7 4.2 327 10.9
2010-04-26 07:16:49 51°13.938 2°55.531 327.4 4.1 327 10.9
2010-04-26 07:16:54 51°13.943 2°55.526 326.9 4 327 10.9
2010-04-26 07:16:59 51°13.947 2°55.522 326.5 3.9 326 10.8
2010-04-26 07:17:04 51°13.951 2°55.517 326 3.8 325 10.8
2010-04-26 07:17:09 51°13.956 2°55.512 325.2 3.8 325 10.8
2010-04-26 07:17:13 51°13.959 2°55.508 324.4 3.7 324 10.6
2010-04-26 07:17:18 51°13.963 2°55.503 323.5 3.7 324 10.8
2010-04-26 07:17:23 51°13.967 2°55.498 322.5 3.7 322 9.8
2010-04-26 07:17:28 51°13.971 2°55.493 321.6 3.7 322 8.8
2010-04-26 07:17:33 51°13.975 2°55.488 320.8 3.7 321 8.1
2010-04-26 07:17:37 51°13.978 2°55.484 320.2 3.6 321 7.4
2010-04-26 07:17:42 51°13.981 2°55.479 319.5 3.4 318 7.2
2010-04-26 07:17:47 51°13.985 2°55.475 318.6 3 319 6.9
2010-04-26 07:17:52 51°13.988 2°55.471 317.4 2.6 316 6.6
2010-04-26 07:17:57 51°13.99 2°55.467 317.1 2.5 318 6.5
2010-04-26 07:18:02 51°13.993 2°55.464 318.2 2.3 321 6.6
2010-04-26 07:18:07 51°13.995 2°55.461 319.8 2.1 320 6.5
2010-04-26 07:18:12 51°13.996 2°55.459 322 1.6 325 6.4
2010-04-26 07:18:17 51°13.997 2°55.458 325 0.9 316 6.3
2010-04-26 07:18:21 51°13.998 2°55.458 328.4 0.7 337 6.1
2010-04-26 07:18:27 51°13.998 2°55.457 330.3 0.7 320 6.1
2010-04-26 07:18:31 51°13.999 2°55.456 332 0.6 337 6.2
2010-04-26 07:18:37 51°14 2°55.455 333.3 0.6 321 6.2
2010-04-26 07:18:41 51°14 2°55.455 334.7 0.6 339 6
2010-04-26 07:18:47 51°14.001 2°55.454 335.8 0.6 325 6
2010-04-26 07:18:51 51°14.002 2°55.454 336.9 0.6 339 5.9
2010-04-26 07:18:57 51°14.003 2°55.453 337.8 0.5 329 5.9
2010-04-26 07:19:01 51°14.003 2°55.453 338.8 0.5 333 6
2010-04-26 07:19:06 51°14.004 2°55.452 339.7 0.3 284 6
2010-04-26 07:19:11 51°14.004 2°55.453 339.8 0.1 55 5.9
2010-04-26 07:19:17 51°14.003 2°55.452 338.3 0.2 231 5.9
2010-04-26 07:19:21 51°14.003 2°55.452 338.9 0.1 110 5.9
2010-04-26 07:19:26 51°14.003 2°55.452 339.8 0.1 171 5.9
2010-04-26 07:19:32 51°14.003 2°55.452 340.6 0.2 81 5.8
2010-04-26 07:19:37 51°14.003 2°55.452 341.4 -999 222 6
2010-04-26 07:19:41 51°14.003 2°55.452 342.1 0.1 86 5.9
2010-04-26 07:19:46 51°14.003 2°55.452 342.9 0.1 243 5.8
2010-04-26 07:19:51 51°14.003 2°55.452 343.2 -999 27 5.9
2010-04-26 07:19:57 51°14.003 2°55.452 343.7 0.1 267 5.9
2010-04-26 07:20:01 51°14.003 2°55.451 344.1 0.1 269 5.9
2010-04-26 07:20:06 51°14.003 2°55.451 344.6 0.1 260 5.9
2010-04-26 07:20:11 51°14.003 2°55.451 344.9 0.1 250 5.8
2010-04-26 07:20:17 51°14.003 2°55.451 345.4 -999 259 5.8
2010-04-26 07:20:21 51°14.004 2°55.451 346.2 -999 266 5.8
2010-04-26 07:20:26 51°14.004 2°55.451 346.3 -999 81 5.8
2010-04-26 07:20:31 51°14.004 2°55.451 346.2 -999 127 5.8
2010-04-26 07:20:37 51°14.004 2°55.451 346.3 -999 110 5.9
2010-04-26 07:20:41 51°14.004 2°55.451 346.6 -999 15 5.9
2010-04-26 07:20:46 51°14.004 2°55.451 346.9 0.1 6 5.9
2010-04-26 07:20:51 51°14.004 2°55.452 347.2 0.1 6 5.9
2010-04-26 07:20:57 51°14.005 2°55.452 347.6 0.2 20 6
2010-04-26 07:21:01 51°14.005 2°55.452 348.5 0.1 5 6.1
2010-04-26 07:21:07 51°14.005 2°55.452 349.1 0.1 278 6.1
2010-04-26 07:21:11 51°14.005 2°55.452 349.4 -999 234 6.1
2010-04-26 07:21:17 51°14.005 2°55.452 349.4 0.1 256 6.1
2010-04-26 07:21:21 51°14.005 2°55.451 349.2 0.1 262 6.1
2010-04-26 07:21:26 51°14.005 2°55.451 348.6 -999 226 6.1
2010-04-26 07:21:32 51°14.005 2°55.451 347.8 0.1 249 6
2010-04-26 07:21:37 51°14.005 2°55.451 347.3 0.1 266 6
2010-04-26 07:21:41 51°14.005 2°55.451 346.8 -999 23 6
2010-04-26 07:21:46 51°14.005 2°55.451 346.3 0.1 14 6
2010-04-26 07:21:51 51°14.005 2°55.451 346.3 0.1 23 6
2010-04-26 07:21:57 51°14.005 2°55.451 346.3 -999 63 6
2010-04-26 07:22:01 51°14.005 2°55.451 346.3 -999 84 6
2010-04-26 07:22:06 51°14.005 2°55.451 346.3 -999 248 6
2010-04-26 07:22:11 51°14.005 2°55.451 346.4 -999 348 6
2010-04-26 07:22:16 51°14.005 2°55.451 346.6 -999 56 6
2010-04-26 07:22:21 51°14.005 2°55.451 346.7 -999 65 6.1
2010-04-26 07:22:26 51°14.004 2°55.451 346.8 -999 73 6
2010-04-26 07:22:31 51°14.004 2°55.451 346.9 -999 68 6
2010-04-26 07:22:37 51°14.004 2°55.451 347 -999 297 6.1
2010-04-26 07:22:41 51°14.005 2°55.451 347 -999 292 6
2010-04-26 07:22:46 51°14.004 2°55.451 347 -999 249 6
2010-04-26 07:22:51 51°14.004 2°55.451 347 -999 94 6
2010-04-26 07:22:57 51°14.005 2°55.451 347 -999 250 6
2010-04-26 07:23:01 51°14.005 2°55.451 347 -999 331 6
2010-04-26 07:23:06 51°14.005 2°55.451 347 -999 134 6
2010-04-26 07:23:11 51°14.005 2°55.452 347 -999 109 6
2010-04-26 07:23:17 51°14.005 2°55.452 347 -999 111 6
2010-04-26 07:23:21 51°14.005 2°55.453 347 -999 219 6
2010-04-26 07:23:26 51°14.005 2°55.453 347 -999 154 6
2010-04-26 07:23:32 51°14.005 2°55.453 347 -999 163 6
2010-04-26 07:23:37 51°14.005 2°55.452 346.9 -999 205 6
2010-04-26 07:23:41 51°14.005 2°55.452 346.8 -999 226 6
2010-04-26 07:23:46 51°14.004 2°55.451 346.8 -999 198 6
2010-04-26 07:23:52 51°14.004 2°55.451 346.7 0.1 238 6
2010-04-26 07:23:57 51°14.004 2°55.451 346.7 -999 134 6
2010-04-26 07:24:01 51°14.004 2°55.451 346.7 -999 231 6
2010-04-26 07:24:06 51°14.004 2°55.45 346.5 -999 142 6
2010-04-26 07:24:11 51°14.004 2°55.451 346.5 -999 266 6
2010-04-26 07:24:17 51°14.004 2°55.451 346.5 -999 345 6
2010-04-26 07:24:21 51°14.004 2°55.451 346.5 -999 284 6
2010-04-26 07:24:26 51°14.004 2°55.451 346.5 -999 37 6
2010-04-26 07:24:31 51°14.004 2°55.45 346.6 -999 45 6
2010-04-26 07:24:37 51°14.004 2°55.45 346.6 -999 257 6
2010-04-26 07:24:41 51°14.004 2°55.449 346.6 -999 250 6
2010-04-26 07:24:46 51°14.004 2°55.449 346.7 -999 86 6
2010-04-26 07:24:51 51°14.003 2°55.449 346.7 -999 256 6.1
2010-04-26 07:24:57 51°14.003 2°55.449 346.7 -999 334 6
2010-04-26 07:25:01 51°14.003 2°55.449 346.7 -999 358 6
2010-04-26 07:25:06 51°14.003 2°55.449 346.7 -999 72 6
2010-04-26 07:25:11 51°14.003 2°55.448 346.7 -999 278 6
2010-04-26 07:25:17 51°14.003 2°55.448 346.7 -999 262 6
2010-04-26 07:25:21 51°14.003 2°55.449 346.7 -999 158 6.1
2010-04-26 07:25:27 51°14.003 2°55.449 346.7 -999 110 6
2010-04-26 07:25:31 51°14.003 2°55.449 346.7 -999 193 6
2010-04-26 07:25:37 51°14.003 2°55.449 346.7 -999 143 6
2010-04-26 07:25:41 51°14.003 2°55.45 346.5 -999 81 6
2010-04-26 07:25:46 51°14.003 2°55.45 346.5 -999 43 6
2010-04-26 07:25:52 51°14.003 2°55.45 346.5 -999 51 6
2010-04-26 07:25:57 51°14.003 2°55.45 346.5 -999 83 6
2010-04-26 07:26:01 51°14.003 2°55.45 346.6 -999 202 6
2010-04-26 07:26:06 51°14.003 2°55.45 346.6 -999 244 6
2010-04-26 07:26:11 51°14.003 2°55.45 346.6 -999 332 6
2010-04-26 07:26:17 51°14.003 2°55.45 346.6 -999 46 6
2010-04-26 07:26:21 51°14.004 2°55.45 346.7 -999 39 6.1
2010-04-26 07:26:26 51°14.004 2°55.45 346.7 -999 207 6.1
2010-04-26 07:26:31 51°14.003 2°55.45 346.7 -999 160 6
2010-04-26 07:26:37 51°14.003 2°55.45 346.7 -999 111 6.1
2010-04-26 07:26:41 51°14.003 2°55.45 346.7 -999 222 6.1
2010-04-26 07:26:46 51°14.003 2°55.45 346.7 -999 52 6.1
2010-04-26 07:26:51 51°14.003 2°55.45 346.6 -999 328 6.1
2010-04-26 07:26:57 51°14.003 2°55.45 346.6 -999 35 6.1
2010-04-26 07:27:01 51°14.003 2°55.45 346.6 -999 74 6.1
2010-04-26 07:27:06 51°14.004 2°55.45 346.6 -999 49 6.1
2010-04-26 07:27:11 51°14.004 2°55.45 346.6 -999 266 6
2010-04-26 07:27:17 51°14.004 2°55.45 346.6 -999 240 6
2010-04-26 07:27:21 51°14.004 2°55.451 346.6 -999 131 6
2010-04-26 07:27:26 51°14.004 2°55.451 346.6 -999 171 6.1
2010-04-26 07:27:31 51°14.004 2°55.452 346.6 -999 255 6
2010-04-26 07:27:37 51°14.004 2°55.452 346.6 -999 -999 6.1
2010-04-26 07:27:41 51°14.004 2°55.452 346.6 -999 34 6.1
2010-04-26 07:27:47 51°14.004 2°55.452 346.6 -999 3 6.1
2010-04-26 07:27:51 51°14.004 2°55.452 346.6 -999 59 6.1
2010-04-26 07:27:57 51°14.004 2°55.451 346.6 -999 332 6.1
2010-04-26 07:28:01 51°14.004 2°55.451 346.7 -999 283 6.1
2010-04-26 07:28:06 51°14.004 2°55.451 346.8 -999 80 6.1
2010-04-26 07:28:11 51°14.004 2°55.45 346.8 -999 256 6.1
2010-04-26 07:28:17 51°14.004 2°55.451 347 -999 67 6.1
2010-04-26 07:28:21 51°14.004 2°55.451 347 -999 54 6.1
2010-04-26 07:28:26 51°14.004 2°55.45 347 -999 84 6.1
2010-04-26 07:28:32 51°14.004 2°55.45 347 -999 216 6.1
2010-04-26 07:28:37 51°14.004 2°55.45 347 -999 251 6.1
2010-04-26 07:28:41 51°14.004 2°55.451 347 -999 38 6.1
2010-04-26 07:28:46 51°14.004 2°55.451 347 -999 84 6.1
2010-04-26 07:28:51 51°14.004 2°55.451 347 -999 244 6.1
2010-04-26 07:28:57 51°14.004 2°55.451 347 -999 284 6.1
2010-04-26 07:29:01 51°14.004 2°55.451 347 -999 273 6.1
2010-04-26 07:29:06 51°14.004 2°55.451 347 -999 49 6.1
2010-04-26 07:29:11 51°14.004 2°55.451 347 -999 265 6.1
2010-04-26 07:29:17 51°14.004 2°55.451 347.1 -999 275 6.1
2010-04-26 07:29:21 51°14.004 2°55.451 347.1 -999 256 6.1
2010-04-26 07:29:26 51°14.004 2°55.451 347.1 -999 71 6.1
2010-04-26 07:29:31 51°14.004 2°55.451 347.1 -999 268 6.2
2010-04-26 07:29:37 51°14.004 2°55.451 347.1 -999 291 6.2
2010-04-26 07:29:41 51°14.004 2°55.451 347.1 -999 54 6.2
2010-04-26 07:29:47 51°14.004 2°55.451 347.2 -999 194 6.2
2010-04-26 07:29:51 51°14.004 2°55.451 347.2 -999 85 6.2
2010-04-26 07:29:57 51°14.004 2°55.451 347.3 0.1 259 6.2
2010-04-26 07:30:01 51°14.004 2°55.451 347.4 -999 273 6.2
2010-04-26 07:30:06 51°14.004 2°55.451 347.4 -999 65 6.2
2010-04-26 07:30:11 51°14.004 2°55.451 347.4 -999 279 6.2
2010-04-26 07:30:17 51°14.004 2°55.451 347.4 -999 39 6.2
2010-04-26 07:30:21 51°14.004 2°55.451 347.4 -999 280 6.2
2010-04-26 07:30:25 51°14.004 2°55.451 347.5 0.1 260 6.2
2010-04-26 07:30:32 51°14.004 2°55.451 347.5 -999 127 6.2
2010-04-26 07:30:37 51°14.004 2°55.451 347.5 -999 86 6.2
2010-04-26 07:30:41 51°14.005 2°55.451 347.5 -999 97 6.2
2010-04-26 07:30:46 51°14.005 2°55.451 347.5 -999 114 6.2
2010-04-26 07:30:52 51°14.005 2°55.451 347.5 -999 133 6.2
2010-04-26 07:30:57 51°14.005 2°55.451 347.6 -999 215 6.2
2010-04-26 07:31:01 51°14.005 2°55.451 347.6 -999 311 6.2
2010-04-26 07:31:06 51°14.004 2°55.451 347.6 -999 274 6.2
2010-04-26 07:31:11 51°14.004 2°55.451 347.5 -999 144 6.2
2010-04-26 07:31:17 51°14.004 2°55.451 347.5 -999 257 6.2
2010-04-26 07:31:21 51°14.004 2°55.451 347.5 -999 89 6.2
2010-04-26 07:31:26 51°14.004 2°55.451 347.5 -999 90 6.2
2010-04-26 07:31:31 51°14.004 2°55.451 347.5 -999 239 6.2
2010-04-26 07:31:37 51°14.004 2°55.451 347.5 -999 104 6.2
2010-04-26 07:31:41 51°14.004 2°55.451 347.6 -999 192 6.2
2010-04-26 07:31:47 51°14.004 2°55.451 347.5 -999 239 6.2
2010-04-26 07:31:51 51°14.004 2°55.451 347.4 0.1 215 6.2
2010-04-26 07:31:57 51°14.004 2°55.451 347.3 -999 237 6.2
2010-04-26 07:32:01 51°14.004 2°55.451 347.3 -999 244 6.2
2010-04-26 07:32:06 51°14.004 2°55.451 347.2 -999 221 6.2
2010-04-26 07:32:11 51°14.004 2°55.451 347.1 -999 88 6.1
2010-04-26 07:32:17 51°14.004 2°55.451 347 -999 85 6.2
2010-04-26 07:32:21 51°14.004 2°55.451 347 -999 218 6.1
2010-04-26 07:32:27 51°14.004 2°55.451 346.9 -999 92 6.1
2010-04-26 07:32:31 51°14.004 2°55.451 346.9 -999 249 6.1
2010-04-26 07:32:37 51°14.004 2°55.451 346.9 -999 165 6.2
2010-04-26 07:32:41 51°14.004 2°55.451 346.9 -999 255 6.2
2010-04-26 07:32:46 51°14.004 2°55.451 346.9 -999 307 6.2
2010-04-26 07:32:52 51°14.004 2°55.451 346.9 -999 265 6.2
2010-04-26 07:32:57 51°14.004 2°55.451 346.9 -999 344 6.2
2010-04-26 07:33:01 51°14.004 2°55.451 346.9 -999 80 6.2
2010-04-26 07:33:06 51°14.004 2°55.451 346.9 -999 83 6.2
2010-04-26 07:33:11 51°14.004 2°55.451 346.9 -999 54 6.2
2010-04-26 07:33:17 51°14.004 2°55.451 347 -999 27 6.2
2010-04-26 07:33:21 51°14.004 2°55.451 347 -999 11 6.2
2010-04-26 07:33:27 51°14.005 2°55.451 347.1 -999 303 6.2
2010-04-26 07:33:31 51°14.005 2°55.451 347.2 -999 313 6.2
2010-04-26 07:33:36 51°14.005 2°55.451 347.3 -999 1 6.2
2010-04-26 07:33:41 51°14.005 2°55.452 347.4 -999 61 6.2
2010-04-26 07:33:46 51°14.005 2°55.452 347.5 -999 262 6.2
2010-04-26 07:33:51 51°14.005 2°55.452 347.5 -999 263 6.2
2010-04-26 07:33:57 51°14.005 2°55.452 347.6 -999 174 6.3
2010-04-26 07:34:01 51°14.005 2°55.452 347.6 -999 166 6.2
2010-04-26 07:34:06 51°14.005 2°55.452 347.5 -999 242 6.2
2010-04-26 07:34:12 51°14.005 2°55.452 347.5 -999 190 6.2
2010-04-26 07:34:17 51°14.005 2°55.452 347.5 -999 146 6.2
2010-04-26 07:34:21 51°14.005 2°55.452 347.4 -999 237 6.2
2010-04-26 07:34:26 51°14.005 2°55.452 347.3 -999 200 6.2
2010-04-26 07:34:31 51°14.005 2°55.452 347.2 -999 133 6.2
2010-04-26 07:34:37 51°14.005 2°55.452 347.2 -999 119 6.2
2010-04-26 07:34:41 51°14.005 2°55.452 347 -999 175 6.2
2010-04-26 07:34:46 51°14.005 2°55.452 346.9 -999 119 6.1
2010-04-26 07:34:51 51°14.005 2°55.452 346.9 -999 228 6.1
2010-04-26 07:34:57 51°14.005 2°55.452 346.8 -999 279 6.2
2010-04-26 07:35:01 51°14.005 2°55.452 346.8 -999 263 6.2
2010-04-26 07:35:06 51°14.005 2°55.452 346.8 -999 8 6.2
2010-04-26 07:35:12 51°14.005 2°55.452 346.8 -999 277 6.2
2010-04-26 07:35:17 51°14.005 2°55.452 346.8 0.1 256 6.2
2010-04-26 07:35:21 51°14.005 2°55.452 346.9 -999 46 6.2
2010-04-26 07:35:26 51°14.005 2°55.452 346.9 -999 317 6.2
2010-04-26 07:35:32 51°14.005 2°55.452 347 -999 8 6.2
2010-04-26 07:35:37 51°14.005 2°55.452 347 -999 53 6.2
2010-04-26 07:35:41 51°14.005 2°55.452 347 -999 17 6.2
2010-04-26 07:35:46 51°14.005 2°55.452 347 -999 331 6.2
2010-04-26 07:35:51 51°14.005 2°55.452 347.1 -999 280 6.2
2010-04-26 07:35:57 51°14.005 2°55.452 347.1 -999 70 6.2
2010-04-26 07:36:01 51°14.005 2°55.452 347.2 -999 274 6.2
2010-04-26 07:36:06 51°14.005 2°55.452 347.3 -999 281 6.3
2010-04-26 07:36:11 51°14.005 2°55.452 347.4 -999 43 6.2
2010-04-26 07:36:17 51°14.005 2°55.452 347.4 -999 280 6.3
2010-04-26 07:36:21 51°14.005 2°55.452 347.4 -999 80 6.3
2010-04-26 07:36:26 51°14.005 2°55.452 347.4 -999 202 6.2
2010-04-26 07:36:31 51°14.005 2°55.452 347.4 -999 180 6.2
2010-04-26 07:36:37 51°14.005 2°55.452 347.4 -999 95 6.2
2010-04-26 07:36:41 51°14.005 2°55.452 347.4 -999 237 6.2
2010-04-26 07:36:47 51°14.005 2°55.452 347.4 -999 237 6.3
2010-04-26 07:36:51 51°14.005 2°55.452 347.3 -999 229 6.2
2010-04-26 07:36:57 51°14.005 2°55.452 347.2 -999 225 6.2
2010-04-26 07:37:01 51°14.005 2°55.452 347.1 -999 182 6.2
2010-04-26 07:37:06 51°14.005 2°55.452 347 -999 115 6.2
2010-04-26 07:37:12 51°14.005 2°55.451 347 0.1 253 6.2
2010-04-26 07:37:17 51°14.005 2°55.452 347 -999 100 6.2
2010-04-26 07:37:21 51°14.005 2°55.452 347 -999 259 6.2
2010-04-26 07:37:26 51°14.005 2°55.452 346.9 -999 310 6.2
2010-04-26 07:37:31 51°14.005 2°55.452 346.9 -999 253 6.2
2010-04-26 07:37:37 51°14.005 2°55.452 346.9 -999 246 6.2
2010-04-26 07:37:41 51°14.005 2°55.452 346.9 -999 69 6.2
2010-04-26 07:37:46 51°14.005 2°55.452 347 -999 280 6.2
2010-04-26 07:37:51 51°14.004 2°55.452 347 -999 114 6.2
2010-04-26 07:37:56 51°14.005 2°55.452 347 -999 78 6.2
2010-04-26 07:38:01 51°14.005 2°55.452 347 -999 261 6.2
2010-04-26 07:38:06 51°14.005 2°55.451 347 -999 322 6.2
2010-04-26 07:38:11 51°14.005 2°55.452 347 -999 203 6.2
2010-04-26 07:38:17 51°14.004 2°55.451 347 -999 193 6.2
2010-04-26 07:38:21 51°14.004 2°55.452 347 -999 184 6.2
2010-04-26 07:38:26 51°14.004 2°55.452 347 -999 259 6.2
2010-04-26 07:38:31 51°14.004 2°55.452 347 0.1 255 6.2
2010-04-26 07:38:37 51°14.004 2°55.452 346.9 -999 69 6.2
2010-04-26 07:38:41 51°14.004 2°55.452 346.9 -999 136 6.2
2010-04-26 07:38:47 51°14.004 2°55.451 346.9 -999 111 6.3
2010-04-26 07:38:52 51°14.004 2°55.451 347 -999 253 6.2
2010-04-26 07:38:57 51°14.004 2°55.451 347 -999 71 6.2
2010-04-26 07:39:01 51°14.004 2°55.451 347 -999 279 6.2
2010-04-26 07:39:07 51°14.004 2°55.451 347 -999 233 6.2
2010-04-26 07:39:11 51°14.004 2°55.451 347 -999 61 6.2
2010-04-26 07:39:17 51°14.004 2°55.451 347 -999 42 6.2
2010-04-26 07:39:21 51°14.004 2°55.451 347 -999 283 6.3
2010-04-26 07:39:26 51°14.004 2°55.451 347 -999 267 6.3
2010-04-26 07:39:31 51°14.004 2°55.451 347 -999 245 6.3
2010-04-26 07:39:37 51°14.004 2°55.451 347 -999 268 6.3
2010-04-26 07:39:41 51°14.004 2°55.452 347 -999 245 6.3
2010-04-26 07:39:46 51°14.004 2°55.452 347.1 -999 237 6.3
2010-04-26 07:39:51 51°14.004 2°55.452 347.1 -999 93 6.2
2010-04-26 07:39:57 51°14.004 2°55.452 347.1 -999 256 6.3
2010-04-26 07:40:01 51°14.004 2°55.452 347.1 -999 104 6.3
2010-04-26 07:40:06 51°14.004 2°55.452 347.1 -999 106 6.2
2010-04-26 07:40:11 51°14.004 2°55.452 347.1 -999 230 6.3
2010-04-26 07:40:17 51°14.004 2°55.452 347.1 -999 275 6.3
2010-04-26 07:40:21 51°14.004 2°55.452 347.1 -999 254 6.3
2010-04-26 07:40:26 51°14.004 2°55.452 347.1 -999 251 6.3
2010-04-26 07:40:31 51°14.004 2°55.452 347.1 -999 204 6.3
2010-04-26 07:40:37 51°14.005 2°55.452 347.2 -999 281 6.3
2010-04-26 07:40:41 51°14.004 2°55.452 347.2 -999 236 6.3
2010-04-26 07:40:46 51°14.004 2°55.452 347.2 -999 105 6.3
2010-04-26 07:40:51 51°14.004 2°55.452 347.2 -999 234 6.3
2010-04-26 07:40:57 51°14.004 2°55.452 347.2 0.1 248 6.3
2010-04-26 07:41:01 51°14.004 2°55.452 347.2 -999 172 6.3
2010-04-26 07:41:07 51°14.004 2°55.452 347.2 -999 108 6.3
2010-04-26 07:41:11 51°14.004 2°55.452 347.2 -999 69 6.3
2010-04-26 07:41:17 51°14.004 2°55.452 347.2 -999 83 6.3
2010-04-26 07:41:21 51°14.004 2°55.452 347.2 -999 227 6.3
2010-04-26 07:41:26 51°14.004 2°55.452 347.2 -999 219 6.3
2010-04-26 07:41:31 51°14.004 2°55.452 347.2 -999 257 6.3
2010-04-26 07:41:37 51°14.004 2°55.452 347.2 -999 89 6.3
2010-04-26 07:41:41 51°14.004 2°55.452 347.1 -999 192 6.3
2010-04-26 07:41:45 51°14.004 2°55.452 347.1 -999 240 6.3
2010-04-26 07:41:51 51°14.004 2°55.452 347 -999 130 6.3
2010-04-26 07:41:57 51°14.004 2°55.452 347 -999 240 6.3
2010-04-26 07:42:01 51°14.004 2°55.452 347 -999 88 6.3
2010-04-26 07:42:06 51°14.004 2°55.452 347 -999 239 6.3
2010-04-26 07:42:11 51°14.004 2°55.452 347 -999 81 6.3
2010-04-26 07:42:16 51°14.004 2°55.452 347 -999 52 6.3
2010-04-26 07:42:21 51°14.004 2°55.452 347 -999 267 6.3
2010-04-26 07:42:26 51°14.004 2°55.452 347 -999 176 6.3
2010-04-26 07:42:31 51°14.004 2°55.452 347 -999 236 6.3
2010-04-26 07:42:37 51°14.004 2°55.452 347 -999 75 6.3
2010-04-26 07:42:41 51°14.004 2°55.452 347 -999 77 6.3
2010-04-26 07:42:46 51°14.004 2°55.452 347 -999 243 6.3
2010-04-26 07:42:51 51°14.004 2°55.453 347 -999 81 6.3
2010-04-26 07:42:57 51°14.004 2°55.453 347 -999 270 6.3
2010-04-26 07:43:01 51°14.004 2°55.453 347 -999 280 6.3
2010-04-26 07:43:07 51°14.004 2°55.453 347.1 -999 32 6.3
2010-04-26 07:43:11 51°14.004 2°55.453 347.1 -999 244 6.3
2010-04-26 07:43:17 51°14.004 2°55.453 347.1 -999 84 6.3
2010-04-26 07:43:21 51°14.004 2°55.453 347.1 -999 325 6.3
2010-04-26 07:43:26 51°14.004 2°55.453 347.2 -999 255 6.3
2010-04-26 07:43:31 51°14.004 2°55.453 347.2 -999 76 6.3
2010-04-26 07:43:37 51°14.005 2°55.453 347.2 -999 253 6.4
2010-04-26 07:43:41 51°14.005 2°55.453 347.3 -999 256 6.3
2010-04-26 07:43:46 51°14.004 2°55.453 347.3 -999 293 6.3
2010-04-26 07:43:51 51°14.004 2°55.453 347.3 -999 232 6.3
2010-04-26 07:43:57 51°14.004 2°55.453 347.3 -999 151 6.3
2010-04-26 07:44:01 51°14.004 2°55.453 347.3 -999 259 6.3
2010-04-26 07:44:06 51°14.004 2°55.453 347.3 -999 38 6.4
2010-04-26 07:44:11 51°14.004 2°55.453 347.4 -999 303 6.3
2010-04-26 07:44:17 51°14.004 2°55.452 347.4 0.1 264 6.4
2010-04-26 07:44:21 51°14.004 2°55.452 347.4 0.1 253 6.3
2010-04-26 07:44:26 51°14.004 2°55.452 347.4 -999 179 6.3
2010-04-26 07:44:31 51°14.004 2°55.452 347.4 -999 237 6.3
2010-04-26 07:44:37 51°14.004 2°55.452 347.3 -999 186 6.4
2010-04-26 07:44:41 51°14.004 2°55.452 347.2 -999 204 6.3
2010-04-26 07:44:46 51°14.004 2°55.452 347.2 -999 131 6.3
2010-04-26 07:44:51 51°14.004 2°55.452 347.1 -999 218 6.3
2010-04-26 07:44:57 51°14.004 2°55.452 347 -999 252 6.3
2010-04-26 07:45:01 51°14.004 2°55.452 347 -999 287 6.3
2010-04-26 07:45:06 51°14.004 2°55.452 347 -999 266 6.3
2010-04-26 07:45:11 51°14.004 2°55.452 347 -999 245 6.3
2010-04-26 07:45:17 51°14.004 2°55.452 347 -999 55 6.3
2010-04-26 07:45:21 51°14.004 2°55.452 347 -999 286 6.3
2010-04-26 07:45:26 51°14.004 2°55.452 347 -999 326 6.3
2010-04-26 07:45:32 51°14.004 2°55.452 347 -999 218 6.3
2010-04-26 07:45:37 51°14.005 2°55.452 347 -999 58 6.3
2010-04-26 07:45:41 51°14.005 2°55.452 347 -999 268 6.3
2010-04-26 07:45:46 51°14.005 2°55.452 347.1 -999 249 6.4
2010-04-26 07:45:52 51°14.005 2°55.453 347.1 -999 96 6.3
2010-04-26 07:45:57 51°14.005 2°55.453 347.1 -999 92 6.4
2010-04-26 07:46:01 51°14.005 2°55.452 347.1 -999 265 6.4
2010-04-26 07:46:06 51°14.005 2°55.452 347.1 -999 255 6.3
2010-04-26 07:46:12 51°14.004 2°55.452 347.1 -999 242 6.4
2010-04-26 07:46:17 51°14.004 2°55.453 347.1 -999 101 6.4
2010-04-26 07:46:21 51°14.004 2°55.453 347.1 -999 22 6.3
2010-04-26 07:46:26 51°14.004 2°55.453 347.1 -999 196 6.3
2010-04-26 07:46:31 51°14.004 2°55.453 347.1 -999 208 6.3
2010-04-26 07:46:37 51°14.004 2°55.453 347.1 -999 211 6.4
2010-04-26 07:46:41 51°14.004 2°55.453 347.1 -999 61 6.3
2010-04-26 07:46:46 51°14.004 2°55.453 347.1 -999 287 6.3
2010-04-26 07:46:51 51°14.004 2°55.453 347.1 -999 268 6.4
2010-04-26 07:46:57 51°14.004 2°55.453 347.1 -999 235 6.3
2010-04-26 07:47:01 51°14.004 2°55.453 347.1 -999 243 6.4
2010-04-26 07:47:06 51°14.004 2°55.453 347.1 -999 63 6.4
2010-04-26 07:47:11 51°14.004 2°55.453 347.1 -999 263 6.4
2010-04-26 07:47:17 51°14.004 2°55.453 347.1 -999 88 6.3
2010-04-26 07:47:21 51°14.004 2°55.453 347 -999 55 6.4
2010-04-26 07:47:26 51°14.004 2°55.453 347 -999 43 6.3
2010-04-26 07:47:31 51°14.004 2°55.453 347 -999 38 6.4
2010-04-26 07:47:37 51°14.004 2°55.453 347 -999 313 6.3
2010-04-26 07:47:41 51°14.004 2°55.453 347 -999 115 6.4
2010-04-26 07:47:47 51°14.004 2°55.453 347 0.1 247 6.4
2010-04-26 07:47:51 51°14.004 2°55.453 347 -999 241 6.3
2010-04-26 07:47:57 51°14.004 2°55.452 347 0.1 227 6.4
2010-04-26 07:48:01 51°14.004 2°55.452 347 0.1 238 6.3
2010-04-26 07:48:06 51°14.004 2°55.452 347 -999 54 6.3
2010-04-26 07:48:11 51°14.004 2°55.452 347 -999 70 6.4
2010-04-26 07:48:17 51°14.004 2°55.452 347 0.1 40 6.4
2010-04-26 07:48:21 51°14.004 2°55.452 347 -999 20 6.4
2010-04-26 07:48:26 51°14.004 2°55.452 347 -999 217 6.4
2010-04-26 07:48:31 51°14.004 2°55.452 347 -999 203 6.4
2010-04-26 07:48:37 51°14.004 2°55.452 347 -999 330 6.4
2010-04-26 07:48:41 51°14.004 2°55.452 347.1 -999 285 6.4
2010-04-26 07:48:46 51°14.004 2°55.452 347.1 -999 122 6.4
2010-04-26 07:48:51 51°14.004 2°55.452 347.1 -999 20 6.4
2010-04-26 07:48:57 51°14.004 2°55.452 347.1 -999 80 6.4
2010-04-26 07:49:01 51°14.004 2°55.452 347.1 -999 273 6.4
2010-04-26 07:49:06 51°14.004 2°55.452 347.2 -999 274 6.4
2010-04-26 07:49:11 51°14.004 2°55.452 347.3 0.1 46 6.4
2010-04-26 07:49:17 51°14.004 2°55.452 347.4 -999 347 6.4
2010-04-26 07:49:21 51°14.005 2°55.453 347.4 0.1 50 6.4
2010-04-26 07:49:26 51°14.005 2°55.452 347.5 0.1 262 6.4
2010-04-26 07:49:31 51°14.004 2°55.452 347.5 -999 76 6.5
2010-04-26 07:49:37 51°14.004 2°55.452 347.5 -999 67 6.4
2010-04-26 07:49:41 51°14.004 2°55.452 347.5 -999 75 6.4
2010-04-26 07:49:47 51°14.004 2°55.452 347.5 0.1 59 6.5
2010-04-26 07:49:52 51°14.004 2°55.452 347.5 -999 315 6.4
2010-04-26 07:49:57 51°14.004 2°55.452 347.3 -999 257 6.4
2010-04-26 07:50:01 51°14.004 2°55.452 347.1 -999 42 6.5
2010-04-26 07:50:06 51°14.004 2°55.452 347 -999 21 6.4
2010-04-26 07:50:12 51°14.004 2°55.452 347 -999 45 6.4
2010-04-26 07:50:17 51°14.004 2°55.452 347.2 -999 196 6.4
2010-04-26 07:50:21 51°14.004 2°55.452 347.3 -999 257 6.5
2010-04-26 07:50:27 51°14.004 2°55.452 347.4 -999 229 6.4
2010-04-26 07:50:32 51°14.004 2°55.452 347.4 -999 245 6.5
2010-04-26 07:50:37 51°14.004 2°55.452 347.4 -999 266 6.5
2010-04-26 07:50:41 51°14.004 2°55.452 347.5 -999 210 6.5
2010-04-26 07:50:46 51°14.005 2°55.452 347.6 -999 52 6.5
2010-04-26 07:50:52 51°14.005 2°55.452 347.7 -999 89 6.5
2010-04-26 07:50:57 51°14.004 2°55.452 347.7 0.1 228 6.5
2010-04-26 07:51:01 51°14.005 2°55.452 347.7 -999 45 6.5
2010-04-26 07:51:06 51°14.004 2°55.452 347.7 -999 8 6.5
2010-04-26 07:51:11 51°14.004 2°55.451 347.7 0.1 241 6.5
2010-04-26 07:51:17 51°14.004 2°55.451 347.7 -999 235 6.5
2010-04-26 07:51:21 51°14.004 2°55.451 347.7 -999 224 6.5
2010-04-26 07:51:44 51°14.004 2°55.451 347.5 -999 114 6.5
2010-04-26 07:51:49 51°14.004 2°55.451 347.5 0.1 243 6.5
2010-04-26 07:51:53 51°14.004 2°55.451 347.4 -999 163 6.5
2010-04-26 07:51:58 51°14.004 2°55.451 347.4 -999 236 6.5
2010-04-26 07:52:04 51°14.004 2°55.451 347.3 0.1 236 6.5
2010-04-26 07:52:09 51°14.004 2°55.451 347.3 0.1 226 6.5
2010-04-26 07:52:13 51°14.004 2°55.451 347.2 -999 309 6.5
2010-04-26 07:52:18 51°14.004 2°55.451 347.1 -999 232 6.5
2010-04-26 07:52:23 51°14.004 2°55.451 347 -999 252 6.4
2010-04-26 07:52:28 51°14.004 2°55.451 347 -999 143 6.5
2010-04-26 07:52:33 51°14.004 2°55.451 347 0.1 255 6.5
2010-04-26 07:52:38 51°14.004 2°55.451 347 0.1 246 6.5
2010-04-26 07:52:43 51°14.004 2°55.451 347 -999 78 6.5
2010-04-26 07:52:44 51°14.004 2°55.451 347 -999 78 6.5
2010-04-26 07:52:53 51°14.004 2°55.451 347 -999 234 6.5
2010-04-26 07:52:53 51°14.004 2°55.451 347 -999 234 6.5
2010-04-26 07:53:09 51°14.004 2°55.451 347.1 -999 267 6.5
2010-04-26 07:53:27 51°14.005 2°55.451 347.2 0.1 250 6.5
2010-04-26 07:53:33 51°14.005 2°55.452 347.3 -999 84 6.5
2010-04-26 07:53:49 51°14.005 2°55.452 347.6 -999 236 6.5
2010-04-26 07:53:49 51°14.005 2°55.452 347.6 -999 236 6.5
2010-04-26 07:53:58 51°14.005 2°55.452 347.7 -999 264 6.6
2010-04-26 07:54:04 51°14.005 2°55.452 347.7 -999 271 6.6
2010-04-26 07:54:22 51°14.005 2°55.452 347.5 -999 168 6.6
2010-04-26 07:54:27 51°14.005 2°55.452 347.5 -999 162 6.6
2010-04-26 07:54:33 51°14.005 2°55.452 347.5 0.1 227 6.5
2010-04-26 07:54:37 51°14.005 2°55.452 347.4 -999 129 6.5
2010-04-26 07:54:42 51°14.005 2°55.451 347.4 -999 229 6.5
2010-04-26 07:54:48 51°14.005 2°55.451 347.3 -999 263 6.6
2010-04-26 07:54:53 51°14.005 2°55.451 347.3 -999 269 6.5
2010-04-26 07:54:57 51°14.005 2°55.451 347.2 -999 250 6.6
2010-04-26 07:55:02 51°14.005 2°55.451 347 -999 308 6.6
2010-04-26 07:55:07 51°14.005 2°55.451 347 -999 275 6.5
2010-04-26 07:55:13 51°14.005 2°55.451 347 -999 230 6.5
2010-04-26 07:55:17 51°14.005 2°55.451 347 -999 53 6.5
2010-04-26 07:55:22 51°14.005 2°55.451 347 -999 254 6.6
2010-04-26 07:55:28 51°14.005 2°55.451 347 -999 212 6.6
2010-04-26 07:55:33 51°14.005 2°55.451 347 -999 91 6.5
2010-04-26 07:55:37 51°14.005 2°55.451 347.1 -999 39 6.6
2010-04-26 07:55:42 51°14.005 2°55.451 347.1 -999 150 6.6
2010-04-26 07:55:47 51°14.005 2°55.451 347.1 -999 29 6.6
2010-04-26 07:55:53 51°14.005 2°55.451 347.1 0.1 243 6.5
2010-04-26 07:55:57 51°14.005 2°55.452 347.1 -999 56 6.6
2010-04-26 07:56:02 51°14.005 2°55.451 347.2 -999 272 6.6
2010-04-26 07:56:07 51°14.004 2°55.451 347.2 -999 230 6.6
2010-04-26 07:56:13 51°14.004 2°55.451 347.2 -999 275 6.6
2010-04-26 07:56:17 51°14.004 2°55.451 347.2 0.1 244 6.6
2010-04-26 07:56:22 51°14.004 2°55.451 347.2 -999 232 6.6
2010-04-26 07:56:28 51°14.004 2°55.451 347.2 -999 207 6.6
2010-04-26 07:56:33 51°14.004 2°55.451 347.1 -999 224 6.6
2010-04-26 07:56:37 51°14.004 2°55.451 347.1 -999 109 6.6
2010-04-26 07:56:43 51°14.004 2°55.451 347 -999 236 6.6
2010-04-26 07:56:47 51°14.004 2°55.451 347 -999 113 6.6
2010-04-26 07:56:53 51°14.004 2°55.451 347 -999 147 6.6
2010-04-26 07:56:57 51°14.004 2°55.451 347 -999 224 6.6
2010-04-26 07:57:02 51°14.004 2°55.451 346.9 -999 253 6.6
2010-04-26 07:57:07 51°14.004 2°55.451 346.8 -999 102 6.6
2010-04-26 07:57:13 51°14.004 2°55.451 346.8 -999 334 6.6
2010-04-26 07:57:17 51°14.004 2°55.451 346.8 -999 272 6.6
2010-04-26 07:57:22 51°14.004 2°55.451 346.8 0.1 242 6.6
2010-04-26 07:57:27 51°14.004 2°55.451 346.8 -999 254 6.6
2010-04-26 07:57:33 51°14.004 2°55.451 346.9 -999 278 6.6
2010-04-26 07:57:37 51°14.004 2°55.451 346.9 -999 264 6.6
2010-04-26 07:57:42 51°14.004 2°55.451 346.9 -999 24 6.6
2010-04-26 07:57:47 51°14.004 2°55.451 346.9 -999 234 6.6
2010-04-26 07:57:53 51°14.004 2°55.451 347 0.1 107 6.6
2010-04-26 07:57:57 51°14.004 2°55.451 347 0.1 89 6.6
2010-04-26 07:58:02 51°14.004 2°55.451 347 -999 131 6.6
2010-04-26 07:58:07 51°14.004 2°55.451 347.2 -999 70 6.6
2010-04-26 07:58:13 51°14.004 2°55.451 347.2 -999 261 6.7
2010-04-26 07:58:17 51°14.004 2°55.451 347.2 0.1 68 6.7
2010-04-26 07:58:22 51°14.004 2°55.451 347.2 -999 3 6.7
2010-04-26 07:58:28 51°14.005 2°55.451 347.4 -999 6 6.7
2010-04-26 07:58:33 51°14.005 2°55.451 347.5 -999 3 6.7
2010-04-26 07:58:37 51°14.005 2°55.451 347.7 -999 30 6.7
2010-04-26 07:58:43 51°14.005 2°55.451 347.7 -999 203 6.7
2010-04-26 07:58:48 51°14.005 2°55.451 347.7 -999 229 6.7
2010-04-26 07:58:53 51°14.005 2°55.451 347.8 -999 61 6.7
2010-04-26 07:58:57 51°14.005 2°55.451 347.8 -999 294 6.7
2010-04-26 07:59:02 51°14.005 2°55.451 347.8 0.1 248 6.7
2010-04-26 07:59:07 51°14.005 2°55.451 347.7 -999 252 6.7
2010-04-26 07:59:13 51°14.005 2°55.451 347.7 0.1 246 6.7
2010-04-26 07:59:17 51°14.005 2°55.452 347.6 -999 217 6.7
2010-04-26 07:59:22 51°14.005 2°55.452 347.6 -999 194 6.7
2010-04-26 07:59:27 51°14.005 2°55.452 347.6 -999 247 6.7
2010-04-26 07:59:33 51°14.004 2°55.451 347.5 0.1 236 6.6
2010-04-26 07:59:37 51°14.005 2°55.452 347.4 -999 117 6.7
2010-04-26 07:59:43 51°14.005 2°55.452 347.4 -999 218 6.7
2010-04-26 07:59:47 51°14.005 2°55.452 347.4 -999 225 6.7
2010-04-26 07:59:53 51°14.005 2°55.452 347.2 -999 242 6.7
2010-04-26 07:59:57 51°14.005 2°55.452 347.1 0.1 258 6.6
2010-04-26 08:00:02 51°14.005 2°55.452 347 -999 110 6.6
2010-04-26 08:00:07 51°14.005 2°55.452 347 -999 136 6.7
2010-04-26 08:00:13 51°14.005 2°55.452 347 -999 157 6.6
2010-04-26 08:00:17 51°14.005 2°55.452 346.9 -999 230 6.7
2010-04-26 08:00:22 51°14.005 2°55.452 346.9 -999 220 6.7
2010-04-26 08:00:27 51°14.005 2°55.452 346.9 -999 84 6.7
2010-04-26 08:00:33 51°14.005 2°55.452 347 -999 284 6.7
2010-04-26 08:00:37 51°14.005 2°55.452 347 -999 63 6.7
2010-04-26 08:00:42 51°14.005 2°55.452 347 -999 6 6.7
2010-04-26 08:00:48 51°14.005 2°55.452 347.1 -999 305 6.7
2010-04-26 08:00:53 51°14.005 2°55.452 347.3 -999 280 6.7
2010-04-26 08:00:57 51°14.005 2°55.452 347.4 -999 31 6.7
2010-04-26 08:01:02 51°14.005 2°55.452 347.6 -999 291 6.7
2010-04-26 08:01:07 51°14.005 2°55.452 347.7 0.1 215 6.7
2010-04-26 08:01:13 51°14.005 2°55.452 347.7 -999 193 6.7
2010-04-26 08:01:17 51°14.005 2°55.452 347.7 -999 227 6.7
2010-04-26 08:01:22 51°14.005 2°55.452 347.7 -999 214 6.7
2010-04-26 08:01:28 51°14.005 2°55.452 347.7 0.1 213 6.7
2010-04-26 08:01:33 51°14.005 2°55.452 347.5 -999 210 6.7
2010-04-26 08:01:37 51°14.005 2°55.452 347.4 -999 245 6.7
2010-04-26 08:01:42 51°14.005 2°55.452 347.4 -999 343 6.7
2010-04-26 08:01:47 51°14.005 2°55.451 347.4 -999 268 6.7
2010-04-26 08:01:53 51°14.005 2°55.452 347.4 -999 50 6.7
2010-04-26 08:01:57 51°14.005 2°55.452 347.4 -999 44 6.7
2010-04-26 08:02:02 51°14.005 2°55.451 347.4 -999 219 6.7
2010-04-26 08:02:07 51°14.005 2°55.452 347.3 0.1 82 6.7
2010-04-26 08:02:13 51°14.005 2°55.451 347.3 -999 110 6.7
2010-04-26 08:02:17 51°14.005 2°55.451 347.4 -999 287 6.8
2010-04-26 08:02:22 51°14.005 2°55.451 347.5 -999 38 6.7
2010-04-26 08:02:27 51°14.005 2°55.451 347.5 -999 272 6.7
2010-04-26 08:02:33 51°14.005 2°55.451 347.6 -999 320 6.8
2010-04-26 08:02:37 51°14.005 2°55.451 347.6 -999 294 6.8
2010-04-26 08:02:42 51°14.005 2°55.451 347.6 -999 268 6.7
2010-04-26 08:02:48 51°14.005 2°55.451 347.7 -999 229 6.8
2010-04-26 08:02:53 51°14.005 2°55.451 347.7 -999 78 6.7
2010-04-26 08:02:57 51°14.005 2°55.451 347.6 -999 221 6.8
2010-04-26 08:03:02 51°14.005 2°55.451 347.5 -999 129 6.7
2010-04-26 08:03:07 51°14.005 2°55.451 347.5 0.1 223 6.8
2010-04-26 08:03:13 51°14.005 2°55.451 347.3 0.1 105 6.7
2010-04-26 08:03:17 51°14.005 2°55.451 347.3 0.1 238 6.7
2010-04-26 08:03:22 51°14.005 2°55.451 347.2 0.1 76 6.7
2010-04-26 08:03:28 51°14.005 2°55.451 347.2 0.1 234 6.7
2010-04-26 08:03:33 51°14.005 2°55.451 347.1 -999 115 6.7
2010-04-26 08:03:37 51°14.005 2°55.451 346.9 -999 267 6.7
2010-04-26 08:03:43 51°14.005 2°55.451 346.9 -999 253 6.7
2010-04-26 08:03:48 51°14.005 2°55.451 346.6 -999 86 6.7
2010-04-26 08:03:53 51°14.005 2°55.451 346.6 -999 227 6.7
2010-04-26 08:03:57 51°14.005 2°55.451 346.6 -999 164 6.7
2010-04-26 08:04:02 51°14.005 2°55.451 346.6 0.1 88 6.7
2010-04-26 08:04:07 51°14.005 2°55.451 346.6 -999 215 6.7
2010-04-26 08:04:13 51°14.005 2°55.451 346.7 -999 116 6.7
2010-04-26 08:04:17 51°14.005 2°55.451 346.7 -999 325 6.7
2010-04-26 08:04:22 51°14.005 2°55.451 346.7 -999 249 6.7
2010-04-26 08:04:27 51°14.005 2°55.451 346.7 -999 223 6.7
2010-04-26 08:04:33 51°14.005 2°55.451 346.8 -999 287 6.7
2010-04-26 08:04:37 51°14.005 2°55.451 346.8 -999 291 6.7
2010-04-26 08:04:42 51°14.005 2°55.451 346.8 -999 1 6.7
2010-04-26 08:04:47 51°14.005 2°55.451 346.8 -999 250 6.7
2010-04-26 08:04:53 51°14.005 2°55.451 346.8 -999 253 6.7
2010-04-26 08:04:57 51°14.005 2°55.451 346.7 0.1 76 6.7
2010-04-26 08:05:02 51°14.005 2°55.451 346.7 -999 205 6.7
2010-04-26 08:05:07 51°14.005 2°55.451 346.8 -999 170 6.7
2010-04-26 08:05:12 51°14.005 2°55.451 346.8 -999 64 6.7
2010-04-26 08:05:17 51°14.005 2°55.451 346.8 -999 131 6.8
2010-04-26 08:05:22 51°14.005 2°55.451 346.8 -999 114 6.7
2010-04-26 08:05:27 51°14.004 2°55.451 346.8 -999 218 6.8
2010-04-26 08:05:33 51°14.005 2°55.451 346.8 -999 286 6.8
2010-04-26 08:05:37 51°14.005 2°55.451 346.9 0.1 282 6.7
2010-04-26 08:05:42 51°14.005 2°55.451 346.9 -999 62 6.8
2010-04-26 08:05:48 51°14.005 2°55.451 346.9 -999 238 6.8
2010-04-26 08:05:53 51°14.004 2°55.451 346.9 -999 223 6.8
2010-04-26 08:05:57 51°14.004 2°55.451 346.9 -999 284 6.8
2010-04-26 08:06:02 51°14.004 2°55.451 346.8 0.1 230 6.8
2010-04-26 08:06:07 51°14.004 2°55.451 346.7 -999 204 6.8
2010-04-26 08:06:13 51°14.004 2°55.451 346.6 -999 114 6.7
2010-04-26 08:06:17 51°14.004 2°55.451 346.6 -999 253 6.7
2010-04-26 08:06:22 51°14.004 2°55.451 346.6 -999 89 6.8
2010-04-26 08:06:27 51°14.004 2°55.451 346.6 -999 283 6.8
2010-04-26 08:06:33 51°14.004 2°55.451 346.6 -999 119 6.7
2010-04-26 08:06:37 51°14.004 2°55.451 346.7 -999 116 6.8
2010-04-26 08:06:43 51°14.004 2°55.451 346.8 0.1 263 6.7
2010-04-26 08:06:47 51°14.004 2°55.451 346.7 -999 300 6.8
2010-04-26 08:06:53 51°14.004 2°55.451 346.7 -999 260 6.8
2010-04-26 08:06:57 51°14.004 2°55.451 346.7 -999 11 6.8
2010-04-26 08:07:02 51°14.004 2°55.451 346.9 0.1 289 6.8
2010-04-26 08:07:07 51°14.004 2°55.451 346.9 -999 76 6.8
2010-04-26 08:07:12 51°14.004 2°55.451 346.9 -999 126 6.8
2010-04-26 08:07:17 51°14.004 2°55.451 346.9 -999 101 6.8
2010-04-26 08:07:22 51°14.004 2°55.451 346.9 0.1 242 6.8
2010-04-26 08:07:27 51°14.004 2°55.451 346.9 -999 4 6.8
2010-04-26 08:07:33 51°14.004 2°55.451 346.9 -999 295 6.8
2010-04-26 08:07:37 51°14.004 2°55.451 346.9 -999 57 6.8
2010-04-26 08:07:42 51°14.004 2°55.451 346.9 -999 60 6.8
2010-04-26 08:07:48 51°14.005 2°55.451 346.9 -999 67 6.7
2010-04-26 08:07:53 51°14.005 2°55.451 347 0.1 262 6.8
2010-04-26 08:07:57 51°14.005 2°55.451 347 -999 65 6.8
2010-04-26 08:08:02 51°14.005 2°55.451 347 -999 41 6.9
2010-04-26 08:08:07 51°14.005 2°55.451 347 -999 228 6.8
2010-04-26 08:08:13 51°14.005 2°55.451 347 -999 129 6.9
2010-04-26 08:08:17 51°14.005 2°55.451 347.1 -999 12 6.9
2010-04-26 08:08:22 51°14.005 2°55.451 347.2 -999 282 6.8
2010-04-26 08:08:28 51°14.005 2°55.451 347.3 -999 272 6.9
2010-04-26 08:08:33 51°14.005 2°55.451 347.3 -999 58 6.9
2010-04-26 08:08:37 51°14.004 2°55.451 347.3 -999 278 6.9
2010-04-26 08:08:43 51°14.005 2°55.451 347.3 -999 30 6.9
2010-04-26 08:08:48 51°14.005 2°55.451 347.2 -999 252 6.9
2010-04-26 08:08:53 51°14.005 2°55.451 347.1 -999 140 6.8
2010-04-26 08:08:57 51°14.005 2°55.451 347.1 -999 220 6.8
2010-04-26 08:09:02 51°14.005 2°55.451 347 -999 139 6.8
2010-04-26 08:09:07 51°14.005 2°55.451 347 -999 218 6.8
2010-04-26 08:09:13 51°14.005 2°55.451 347 -999 70 6.8
2010-04-26 08:09:17 51°14.005 2°55.451 347 0.1 233 6.8
2010-04-26 08:09:22 51°14.005 2°55.451 347 -999 236 6.8
2010-04-26 08:09:27 51°14.005 2°55.451 346.9 -999 261 6.8
2010-04-26 08:09:33 51°14.005 2°55.451 346.7 -999 75 6.8
2010-04-26 08:09:37 51°14.005 2°55.451 346.7 -999 247 6.9
2010-04-26 08:09:42 51°14.005 2°55.451 346.7 -999 119 6.8
2010-04-26 08:09:47 51°14.005 2°55.451 346.7 0.1 255 6.8
2010-04-26 08:09:53 51°14.005 2°55.451 346.5 -999 99 6.8
2010-04-26 08:09:57 51°14.005 2°55.451 346.5 -999 248 6.8
2010-04-26 08:10:03 51°14.005 2°55.451 346.6 -999 194 6.8
2010-04-26 08:10:07 51°14.005 2°55.451 346.6 -999 248 6.8
2010-04-26 08:10:13 51°14.005 2°55.451 346.5 -999 172 6.8
2010-04-26 08:10:17 51°14.005 2°55.451 346.5 -999 81 6.8
2010-04-26 08:10:22 51°14.005 2°55.451 346.5 -999 241 6.8
2010-04-26 08:10:27 51°14.005 2°55.451 346.6 -999 66 6.9
2010-04-26 08:10:33 51°14.005 2°55.451 346.6 0.1 300 6.9
2010-04-26 08:10:37 51°14.005 2°55.451 346.5 -999 300 6.8
2010-04-26 08:10:41 51°14.005 2°55.451 346.5 -999 327 7
2010-04-26 08:10:48 51°14.004 2°55.451 346.6 -999 249 6.9
2010-04-26 08:10:53 51°14.005 2°55.451 346.7 -999 29 6.9
2010-04-26 08:10:57 51°14.005 2°55.451 346.6 -999 326 6.9
2010-04-26 08:11:02 51°14.004 2°55.451 346.5 -999 38 6.9
2010-04-26 08:11:07 51°14.004 2°55.451 346.6 0.1 266 6.9
2010-04-26 08:11:13 51°14.004 2°55.451 346.7 -999 99 6.9
2010-04-26 08:11:17 51°14.004 2°55.451 346.7 -999 144 6.9
2010-04-26 08:11:22 51°14.004 2°55.451 346.6 -999 100 6.9
2010-04-26 08:11:27 51°14.004 2°55.451 346.6 -999 195 6.9
2010-04-26 08:11:33 51°14.004 2°55.451 346.6 -999 95 6.8
2010-04-26 08:11:37 51°14.004 2°55.451 346.7 -999 274 6.9
2010-04-26 08:11:43 51°14.004 2°55.451 346.8 -999 70 6.9
2010-04-26 08:11:47 51°14.004 2°55.451 346.9 0.1 277 6.9
2010-04-26 08:11:53 51°14.004 2°55.452 346.9 0.1 66 6.9
2010-04-26 08:11:57 51°14.004 2°55.451 347 -999 321 6.9
2010-04-26 08:12:02 51°14.004 2°55.451 347 -999 251 6.9
2010-04-26 08:12:07 51°14.004 2°55.452 347 -999 104 6.9
2010-04-26 08:12:12 51°14.004 2°55.452 346.9 -999 207 7
2010-04-26 08:12:17 51°14.004 2°55.451 346.9 0.1 220 6.9
2010-04-26 08:12:22 51°14.004 2°55.452 346.9 -999 104 6.9
2010-04-26 08:12:27 51°14.004 2°55.452 346.7 -999 122 6.9
2010-04-26 08:12:33 51°14.004 2°55.451 346.8 0.1 239 6.9
2010-04-26 08:12:37 51°14.004 2°55.452 346.8 -999 71 6.9
2010-04-26 08:12:42 51°14.004 2°55.452 346.7 0.1 245 6.9
2010-04-26 08:12:48 51°14.004 2°55.452 346.7 -999 148 6.9
2010-04-26 08:12:53 51°14.004 2°55.451 346.7 0.1 234 6.9
2010-04-26 08:12:57 51°14.004 2°55.452 346.5 -999 72 6.9
2010-04-26 08:13:02 51°14.004 2°55.452 346.4 -999 163 6.9
2010-04-26 08:13:07 51°14.004 2°55.451 346.3 -999 258 6.9
2010-04-26 08:13:13 51°14.004 2°55.452 346.3 0.1 65 6.9
2010-04-26 08:13:17 51°14.004 2°55.451 346.3 -999 299 6.9
2010-04-26 08:13:22 51°14.004 2°55.452 346.3 -999 91 6.9
2010-04-26 08:13:27 51°14.004 2°55.451 346.3 -999 205 6.9
2010-04-26 08:13:33 51°14.004 2°55.452 346.3 -999 95 7
2010-04-26 08:13:37 51°14.004 2°55.451 346.3 0.1 256 6.9
2010-04-26 08:13:42 51°14.004 2°55.451 346.3 -999 312 6.9
2010-04-26 08:13:47 51°14.004 2°55.451 346.3 -999 258 6.9
2010-04-26 08:13:52 51°14.004 2°55.452 346.3 -999 158 7
2010-04-26 08:13:57 51°14.004 2°55.451 346.3 -999 201 7
2010-04-26 08:14:02 51°14.004 2°55.452 346.3 -999 114 6.9
2010-04-26 08:14:07 51°14.004 2°55.451 346.3 -999 247 7
2010-04-26 08:14:13 51°14.004 2°55.452 346.3 -999 46 6.9
2010-04-26 08:14:17 51°14.004 2°55.452 346.3 -999 350 7
2010-04-26 08:14:22 51°14.004 2°55.452 346.3 -999 31 6.9
2010-04-26 08:14:28 51°14.004 2°55.451 346.4 -999 259 7
2010-04-26 08:14:33 51°14.004 2°55.452 346.5 -999 57 7
2010-04-26 08:14:37 51°14.004 2°55.452 346.5 -999 339 7
2010-04-26 08:14:43 51°14.004 2°55.452 346.5 -999 104 7
2010-04-26 08:14:48 51°14.004 2°55.452 346.7 0.1 250 7
2010-04-26 08:14:53 51°14.004 2°55.452 346.7 0.1 76 7
2010-04-26 08:14:57 51°14.004 2°55.452 346.7 -999 274 7
2010-04-26 08:15:02 51°14.004 2°55.452 346.7 -999 282 5.3
2010-04-26 08:15:07 51°14.004 2°55.452 346.7 0.1 52 7
2010-04-26 08:15:13 51°14.004 2°55.452 346.7 -999 262 7
2010-04-26 08:15:17 51°14.004 2°55.452 346.7 -999 88 7
2010-04-26 08:15:22 51°14.004 2°55.452 346.7 -999 5 7
2010-04-26 08:15:27 51°14.004 2°55.452 346.7 -999 30 7
2010-04-26 08:15:33 51°14.004 2°55.452 346.7 -999 272 7
2010-04-26 08:15:37 51°14.004 2°55.452 346.7 -999 318 7
2010-04-26 08:15:42 51°14.004 2°55.452 346.7 0.1 260 7
2010-04-26 08:15:47 51°14.004 2°55.452 346.7 -999 252 7.1
2010-04-26 08:15:53 51°14.004 2°55.452 346.7 0.1 250 7
2010-04-26 08:15:57 51°14.004 2°55.452 346.6 0.1 80 5.3
2010-04-26 08:16:02 51°14.004 2°55.452 346.5 -999 8 7.1
2010-04-26 08:16:07 51°14.004 2°55.452 346.5 -999 213 7
2010-04-26 08:16:13 51°14.004 2°55.452 346.5 0.1 100 7.1
2010-04-26 08:16:17 51°14.004 2°55.452 346.5 -999 48 7.1
2010-04-26 08:16:23 51°14.004 2°55.452 346.5 0.1 258 7.1
2010-04-26 08:16:27 51°14.004 2°55.452 346.5 -999 201 7.1
2010-04-26 08:16:33 51°14.004 2°55.452 346.6 -999 223 7.1
2010-04-26 08:16:37 51°14.004 2°55.452 346.6 -999 142 7.1
2010-04-26 08:16:43 51°14.004 2°55.452 346.6 0.1 234 7.1
2010-04-26 08:16:47 51°14.004 2°55.452 346.5 0.1 91 7.1
2010-04-26 08:16:53 51°14.004 2°55.452 346.5 0.1 259 7.1
2010-04-26 08:16:57 51°14.004 2°55.452 346.4 0.1 56 7
2010-04-26 08:17:03 51°14.004 2°55.452 346.5 0.1 255 7.1
2010-04-26 08:17:07 51°14.004 2°55.452 346.5 -999 292 5.3
2010-04-26 08:17:13 51°14.004 2°55.452 346.5 0.1 251 -999
2010-04-26 08:17:17 51°14.004 2°55.452 346.5 -999 257 7.1
2010-04-26 08:17:22 51°14.003 2°55.452 346.5 0.1 226 7.1
2010-04-26 08:17:27 51°14.004 2°55.452 346.4 -999 109 7.1
2010-04-26 08:17:33 51°14.004 2°55.452 346.4 -999 230 7.1
2010-04-26 08:17:37 51°14.004 2°55.452 346.4 -999 67 5.4
2010-04-26 08:17:42 51°14.004 2°55.452 346.4 -999 188 -999
2010-04-26 08:17:48 51°14.004 2°55.452 346.3 -999 216 7.1
2010-04-26 08:17:53 51°14.004 2°55.452 346.3 0.1 85 7.1
2010-04-26 08:17:57 51°14.004 2°55.452 346.3 -999 140 7.1
2010-04-26 08:18:02 51°14.004 2°55.452 346.3 -999 261 7.1
2010-04-26 08:18:07 51°14.004 2°55.452 346.4 -999 211 7.2
2010-04-26 08:18:13 51°14.004 2°55.452 346.3 -999 104 7.1
2010-04-26 08:18:17 51°14.004 2°55.452 346.3 -999 224 7.1
2010-04-26 08:18:22 51°14.004 2°55.452 346.4 -999 238 7.2
2010-04-26 08:18:27 51°14.004 2°55.452 346.4 -999 24 7.1
2010-04-26 08:18:33 51°14.004 2°55.452 346.4 -999 225 7.1
2010-04-26 08:18:37 51°14.004 2°55.452 346.3 -999 220 7.1
2010-04-26 08:18:42 51°14.004 2°55.452 346.2 -999 101 7.1
2010-04-26 08:18:47 51°14.004 2°55.452 346.2 -999 275 7.1
2010-04-26 08:18:52 51°14.004 2°55.452 346.2 -999 239 7.1
2010-04-26 08:18:57 51°14.004 2°55.452 346.2 -999 173 7.1
2010-04-26 08:19:02 51°14.004 2°55.452 346.2 -999 126 7.1
2010-04-26 08:19:07 51°14.004 2°55.452 346.3 -999 60 7.1
2010-04-26 08:19:13 51°14.004 2°55.451 346.4 -999 256 7.2
2010-04-26 08:19:17 51°14.004 2°55.451 346.4 -999 259 7.1
2010-04-26 08:19:22 51°14.004 2°55.451 346.4 -999 165 7.2
2010-04-26 08:19:27 51°14.004 2°55.452 346.4 -999 50 7.2
2010-04-26 08:19:32 51°14.004 2°55.451 346.4 -999 286 5.4
2010-04-26 08:19:37 51°14.004 2°55.451 346.4 -999 273 5.4
2010-04-26 08:19:42 51°14.004 2°55.452 346.4 0.1 48 7.2
2010-04-26 08:19:47 51°14.004 2°55.451 346.4 0.1 262 7.2
2010-04-26 08:19:53 51°14.004 2°55.451 346.5 -999 118 7.2
2010-04-26 08:19:57 51°14.004 2°55.451 346.5 -999 301 7.2
2010-04-26 08:20:02 51°14.004 2°55.451 346.6 -999 43 7.2
2010-04-26 08:20:07 51°14.004 2°55.451 346.6 -999 164 7.2
2010-04-26 08:20:13 51°14.004 2°55.452 346.6 -999 262 7.2
2010-04-26 08:20:17 51°14.004 2°55.451 346.8 -999 258 5.4
2010-04-26 08:20:22 51°14.005 2°55.452 346.8 -999 22 7.2
2010-04-26 08:20:27 51°14.004 2°55.451 346.8 -999 243 7.2
2010-04-26 08:20:33 51°14.004 2°55.451 346.8 -999 241 7.2
2010-04-26 08:20:37 51°14.004 2°55.451 346.8 -999 102 7.2
2010-04-26 08:20:42 51°14.004 2°55.451 346.8 -999 219 7.2
2010-04-26 08:20:48 51°14.005 2°55.452 346.8 -999 140 7.2
2010-04-26 08:20:53 51°14.005 2°55.451 346.8 -999 266 7.2
2010-04-26 08:20:57 51°14.005 2°55.452 346.8 -999 74 7.2
2010-04-26 08:21:02 51°14.005 2°55.451 346.8 0.1 271 7.3
2010-04-26 08:21:07 51°14.005 2°55.452 346.8 0.1 72 7.2
2010-04-26 08:21:13 51°14.005 2°55.451 346.8 0.1 257 7.3
2010-04-26 08:21:17 51°14.005 2°55.452 346.7 -999 82 7.2
2010-04-26 08:21:22 51°14.005 2°55.452 346.6 -999 207 7.2
2010-04-26 08:21:28 51°14.005 2°55.451 346.6 0.1 274 7.3
2010-04-26 08:21:33 51°14.005 2°55.451 346.5 -999 267 5.4
2010-04-26 08:21:37 51°14.005 2°55.451 346.5 -999 227 7.2
2010-04-26 08:21:42 51°14.005 2°55.451 346.5 0.1 250 7.2
2010-04-26 08:21:48 51°14.004 2°55.451 346.4 -999 186 7.2
2010-04-26 08:21:53 51°14.004 2°55.451 346.2 -999 163 7.2
2010-04-26 08:21:57 51°14.004 2°55.451 346.2 -999 275 7.2
2010-04-26 08:22:03 51°14.004 2°55.451 346.2 -999 76 7.2
2010-04-26 08:22:08 51°14.005 2°55.451 346.2 -999 14 7.2
2010-04-26 08:22:13 51°14.004 2°55.451 346.2 -999 31 7.2
2010-04-26 08:22:17 51°14.004 2°55.451 346.2 -999 176 7.2
2010-04-26 08:22:22 51°14.004 2°55.451 346.1 -999 270 5.4
2010-04-26 08:22:27 51°14.004 2°55.451 346.1 -999 38 7.2
2010-04-26 08:22:33 51°14.004 2°55.451 346.2 -999 268 7.2
2010-04-26 08:22:37 51°14.004 2°55.451 346.3 -999 81 7.2
2010-04-26 08:22:42 51°14.004 2°55.451 346.3 -999 57 7.2
2010-04-26 08:22:47 51°14.004 2°55.451 346.2 -999 260 7.2
2010-04-26 08:22:53 51°14.004 2°55.451 346.1 0.1 64 7.2
2010-04-26 08:22:57 51°14.004 2°55.451 346.1 -999 317 7.2
2010-04-26 08:23:02 51°14.004 2°55.451 346.2 -999 277 5.4
2010-04-26 08:23:07 51°14.004 2°55.451 346.2 -999 179 5.4
2010-04-26 08:23:12 51°14.004 2°55.451 346.2 -999 138 5.4
2010-04-26 08:23:17 51°14.004 2°55.451 346.3 0.1 229 5.4
2010-04-26 08:23:22 51°14.004 2°55.451 346.2 0.1 61 7.2
2010-04-26 08:23:27 51°14.004 2°55.451 346.2 -999 299 7.3
2010-04-26 08:23:33 51°14.004 2°55.45 346.2 -999 65 7.3
2010-04-26 08:23:37 51°14.005 2°55.45 346.2 -999 28 7.3
2010-04-26 08:23:43 51°14.004 2°55.45 346.3 -999 256 7.3
2010-04-26 08:23:47 51°14.004 2°55.45 346.3 -999 185 5.5
2010-04-26 08:23:52 51°14.004 2°55.45 346.2 -999 86 5.5
2010-04-26 08:23:57 51°14.004 2°55.45 346.3 -999 240 5.4
2010-04-26 08:24:02 51°14.004 2°55.45 346.3 -999 72 7.3
2010-04-26 08:24:07 51°14.004 2°55.45 346.3 -999 53 7.3
2010-04-26 08:24:13 51°14.004 2°55.45 346.4 -999 10 7.3
2010-04-26 08:24:17 51°14.004 2°55.45 346.6 -999 291 7.3
2010-04-26 08:24:22 51°14.004 2°55.45 346.7 -999 239 7.3
2010-04-26 08:24:28 51°14.004 2°55.45 346.7 -999 185 7.3
2010-04-26 08:24:33 51°14.004 2°55.45 346.6 -999 19 7.4
2010-04-26 08:24:37 51°14.004 2°55.45 346.6 -999 280 5.5
2010-04-26 08:24:42 51°14.005 2°55.45 346.8 -999 68 -999
2010-04-26 08:24:48 51°14.005 2°55.45 346.8 -999 331 7.3
2010-04-26 08:24:53 51°14.005 2°55.45 346.8 -999 124 7.4
2010-04-26 08:24:57 51°14.005 2°55.45 346.8 -999 306 7.3
2010-04-26 08:25:02 51°14.005 2°55.45 346.8 -999 308 7.4
2010-04-26 08:25:07 51°14.005 2°55.45 346.8 -999 55 7.3
2010-04-26 08:25:12 51°14.005 2°55.45 346.8 -999 239 7.3
2010-04-26 08:25:17 51°14.005 2°55.45 346.8 0.1 78 7.4
2010-04-26 08:25:22 51°14.005 2°55.45 346.8 -999 248 5.5
2010-04-26 08:25:28 51°14.005 2°55.45 346.9 0.1 226 5.5
2010-04-26 08:25:33 51°14.005 2°55.45 346.8 -999 95 5.5
2010-04-26 08:25:37 51°14.005 2°55.45 346.8 -999 214 7.3
2010-04-26 08:25:43 51°14.005 2°55.45 346.8 -999 139 7.4
2010-04-26 08:25:47 51°14.005 2°55.45 346.9 -999 300 7.3
2010-04-26 08:25:52 51°14.005 2°55.45 346.9 0.1 292 7.3
2010-04-26 08:25:57 51°14.005 2°55.45 346.8 -999 247 7.4
2010-04-26 08:26:02 51°14.005 2°55.45 346.6 -999 41 7.4
2010-04-26 08:26:07 51°14.005 2°55.45 346.6 -999 301 7.4
2010-04-26 08:26:13 51°14.005 2°55.45 346.6 -999 96 5.5
2010-04-26 08:26:17 51°14.005 2°55.45 346.5 -999 83 5.5
2010-04-26 08:26:22 51°14.005 2°55.45 346.6 0.1 77 -999
2010-04-26 08:26:27 51°14.005 2°55.45 346.9 -999 16 7.4
2010-04-26 08:26:33 51°14.005 2°55.45 347 -999 348 7.4
2010-04-26 08:26:37 51°14.005 2°55.45 347 -999 38 7.4
2010-04-26 08:26:42 51°14.005 2°55.45 346.9 -999 36 5.5
2010-04-26 08:26:48 51°14.005 2°55.45 347 -999 134 5.5
2010-04-26 08:26:53 51°14.005 2°55.45 347 -999 290 5.5
2010-04-26 08:26:57 51°14.005 2°55.45 347 -999 310 -999
2010-04-26 08:27:02 51°14.005 2°55.45 346.9 -999 171 7.4
2010-04-26 08:27:07 51°14.005 2°55.45 346.8 -999 208 7.4
2010-04-26 08:27:12 51°14.005 2°55.45 346.8 -999 219 7.4
2010-04-26 08:27:17 51°14.005 2°55.45 346.7 -999 82 7.4
2010-04-26 08:27:22 51°14.005 2°55.45 346.7 -999 213 7.4
2010-04-26 08:27:27 51°14.005 2°55.45 346.7 -999 76 7.4
2010-04-26 08:27:32 51°14.005 2°55.45 346.8 0.1 272 7.4
2010-04-26 08:27:37 51°14.005 2°55.45 346.8 0.1 81 -999
2010-04-26 08:27:42 51°14.005 2°55.45 347 0.1 287 7.5
2010-04-26 08:27:47 51°14.005 2°55.45 347 0.1 56 7.5
2010-04-26 08:27:52 51°14.005 2°55.45 347.2 0.1 270 7.5
2010-04-26 08:27:57 51°14.005 2°55.45 347.2 -999 92 7.5
2010-04-26 08:28:03 51°14.004 2°55.45 347.2 0.1 245 7.4
2010-04-26 08:28:07 51°14.004 2°55.45 347.1 0.1 241 7.5
2010-04-26 08:28:13 51°14.005 2°55.45 346.9 -999 146 7.5
2010-04-26 08:28:17 51°14.005 2°55.45 346.9 -999 124 7.4
2010-04-26 08:28:23 51°14.005 2°55.45 346.9 -999 188 7.4
2010-04-26 08:28:27 51°14.005 2°55.45 346.9 -999 65 7.4
2010-04-26 08:28:33 51°14.005 2°55.45 346.7 -999 303 7.4
2010-04-26 08:28:37 51°14.005 2°55.45 346.7 -999 119 5.5
2010-04-26 08:28:42 51°14.005 2°55.45 346.7 -999 41 -999
2010-04-26 08:28:48 51°14.005 2°55.45 346.7 -999 70 7.5
2010-04-26 08:28:53 51°14.005 2°55.45 346.7 -999 250 7.5
2010-04-26 08:28:57 51°14.005 2°55.45 346.7 -999 152 7.5
2010-04-26 08:29:02 51°14.005 2°55.45 346.7 -999 179 7.4
2010-04-26 08:29:07 51°14.005 2°55.45 346.7 -999 354 7.4
2010-04-26 08:29:13 51°14.005 2°55.45 346.7 -999 64 7.5
2010-04-26 08:29:17 51°14.005 2°55.45 346.8 -999 204 7.5
2010-04-26 08:29:22 51°14.005 2°55.45 346.8 -999 2 7.5
2010-04-26 08:29:27 51°14.005 2°55.45 346.8 -999 260 7.5
2010-04-26 08:29:33 51°14.005 2°55.45 346.8 -999 339 7.5
2010-04-26 08:29:37 51°14.005 2°55.45 346.8 -999 282 7.5
2010-04-26 08:29:42 51°14.005 2°55.45 346.7 0.1 249 7.5
2010-04-26 08:29:47 51°14.005 2°55.45 346.6 0.1 90 7.5
2010-04-26 08:29:53 51°14.005 2°55.45 346.6 -999 210 7.4
2010-04-26 08:29:57 51°14.005 2°55.45 346.6 -999 118 5.5
2010-04-26 08:30:02 51°14.005 2°55.45 346.6 -999 14 7.5
2010-04-26 08:30:07 51°14.005 2°55.451 346.6 0.1 103 7.5
2010-04-26 08:30:13 51°14.005 2°55.451 346.8 -999 298 7.5
2010-04-26 08:30:17 51°14.005 2°55.451 346.8 -999 24 7.5
2010-04-26 08:30:23 51°14.005 2°55.451 346.9 -999 74 7.5
2010-04-26 08:30:27 51°14.005 2°55.451 346.9 -999 24 7.6
2010-04-26 08:30:32 51°14.005 2°55.45 347 -999 298 7.5
2010-04-26 08:30:37 51°14.005 2°55.45 347 -999 31 7.5
2010-04-26 08:30:42 51°14.005 2°55.45 347 -999 324 7.6
2010-04-26 08:30:47 51°14.005 2°55.45 347 -999 51 5.6
2010-04-26 08:30:53 51°14.005 2°55.45 347.3 -999 316 7.6
2010-04-26 08:30:57 51°14.005 2°55.45 347.3 -999 245 7.5
2010-04-26 08:31:02 51°14.005 2°55.45 347.3 -999 117 7.6
2010-04-26 08:31:07 51°14.005 2°55.45 347.1 0.1 254 7.5
2010-04-26 08:31:13 51°14.005 2°55.45 347 -999 142 7.5
2010-04-26 08:31:17 51°14.005 2°55.45 347 -999 248 7.6
2010-04-26 08:31:22 51°14.005 2°55.45 347 -999 135 7.6
2010-04-26 08:31:27 51°14.005 2°55.451 347 0.1 346 7.5
2010-04-26 08:31:33 51°14.005 2°55.451 347 -999 343 7.6
2010-04-26 08:31:37 51°14.005 2°55.451 347.1 -999 56 7.6
2010-04-26 08:31:42 51°14.005 2°55.45 347.1 0.1 285 5.6
2010-04-26 08:31:48 51°14.005 2°55.45 347.2 -999 92 -999
2010-04-26 08:31:53 51°14.005 2°55.45 347.1 -999 142 7.6
2010-04-26 08:31:57 51°14.005 2°55.45 347.1 -999 222 7.5
2010-04-26 08:32:02 51°14.005 2°55.45 347.1 -999 188 7.6
2010-04-26 08:32:07 51°14.005 2°55.45 347 -999 119 7.6
2010-04-26 08:32:12 51°14.005 2°55.45 347.1 -999 164 7.6
2010-04-26 08:32:17 51°14.005 2°55.45 347.2 0.1 249 7.6
2010-04-26 08:32:22 51°14.005 2°55.45 347.2 -999 191 7.6
2010-04-26 08:32:27 51°14.005 2°55.45 347 -999 251 7.6
2010-04-26 08:32:33 51°14.005 2°55.45 347 -999 12 7.6
2010-04-26 08:32:37 51°14.005 2°55.45 347.1 -999 76 5.6
2010-04-26 08:32:42 51°14.005 2°55.45 347.1 -999 260 7.6
2010-04-26 08:32:47 51°14.005 2°55.45 347.1 -999 20 7.5
2010-04-26 08:32:53 51°14.005 2°55.45 347.1 -999 266 7.6
2010-04-26 08:32:57 51°14.005 2°55.451 347.1 -999 145 7.6
2010-04-26 08:33:02 51°14.005 2°55.45 347.1 -999 219 7.6
2010-04-26 08:33:07 51°14.005 2°55.451 347.1 -999 99 7.6
2010-04-26 08:33:13 51°14.005 2°55.45 347.1 0.1 249 7.6
2010-04-26 08:33:17 51°14.005 2°55.451 347.1 -999 115 7.6
2010-04-26 08:33:22 51°14.005 2°55.45 347 -999 202 7.6
2010-04-26 08:33:27 51°14.005 2°55.45 347 -999 51 7.6